createdAt,value
2018-09-08T00:00:03.053Z,98.56
2018-09-08T00:01:03.000Z,98.56
2018-09-08T00:02:02.688Z,97.99
2018-09-08T00:03:02.729Z,97.89
2018-09-08T00:04:02.951Z,98.85
2018-09-08T00:05:02.711Z,98.08
2018-09-08T00:06:02.622Z,99.23
2018-09-08T00:07:02.601Z,98.75
2018-09-08T00:08:02.737Z,98.85
2018-09-08T00:09:02.566Z,98.56
2018-09-08T00:10:02.911Z,98.85
2018-09-08T00:11:02.573Z,99.13
2018-09-08T00:12:02.555Z,99.04
2018-09-08T00:13:02.494Z,99.23
2018-09-08T00:14:02.623Z,99.71
2018-09-08T00:15:02.460Z,99.04
2018-09-08T00:16:02.755Z,98.85
2018-09-08T00:17:02.413Z,99.99
2018-09-08T00:18:02.753Z,99.52
2018-09-08T00:19:02.379Z,99.99
2018-09-08T00:20:02.490Z,99.90
2018-09-08T00:21:02.521Z,99.61
2018-09-08T00:22:02.714Z,99.99
2018-09-08T00:23:02.481Z,99.99
2018-09-08T00:24:02.573Z,99.90
2018-09-08T00:25:02.284Z,99.71
2018-09-08T00:26:03.195Z,99.80
2018-09-08T00:27:02.277Z,99.80
2018-09-08T00:28:03.774Z,99.99
2018-09-08T00:29:02.212Z,99.80
2018-09-08T00:30:02.255Z,99.80
2018-09-08T00:31:02.354Z,99.42
2018-09-08T00:32:02.375Z,99.42
2018-09-08T00:33:02.244Z,99.71
2018-09-08T00:34:02.414Z,98.94
2018-09-08T00:35:02.090Z,99.42
2018-09-08T00:36:02.182Z,98.61
2018-09-08T00:37:02.065Z,99.18
2018-09-08T00:38:02.175Z,98.51
2018-09-08T00:39:02.076Z,98.42
2018-09-08T00:40:02.336Z,98.90
2018-09-08T00:41:01.994Z,98.70
2018-09-08T00:42:03.274Z,98.42
2018-09-08T00:43:01.955Z,98.61
2018-09-08T00:44:01.934Z,97.94
2018-09-08T00:45:01.920Z,97.94
2018-09-08T00:46:01.905Z,97.94
2018-09-08T00:47:02.233Z,97.94
2018-09-08T00:48:01.857Z,98.42
2018-09-08T00:49:01.837Z,98.13
2018-09-08T00:50:01.833Z,98.80
2018-09-08T00:51:02.227Z,98.42
2018-09-08T00:52:01.821Z,98.03
2018-09-08T00:53:01.913Z,98.03
2018-09-08T00:54:02.422Z,98.03
2018-09-08T00:55:01.845Z,97.85
2018-09-08T00:56:01.746Z,98.03
2018-09-08T00:57:01.768Z,98.03
2018-09-08T00:58:01.704Z,98.13
2018-09-08T00:59:01.662Z,97.46
2018-09-08T01:00:01.691Z,97.56
2018-09-08T01:01:01.923Z,97.17
2018-09-08T01:02:01.664Z,96.70
2018-09-08T01:03:01.593Z,96.51
2018-09-08T01:04:01.571Z,96.41
2018-09-08T01:05:01.584Z,96.56
2018-09-08T01:06:01.586Z,96.13
2018-09-08T01:07:01.553Z,96.32
2018-09-08T01:08:01.856Z,96.08
2018-09-08T01:09:01.509Z,95.70
2018-09-08T01:10:01.580Z,94.74
2018-09-08T01:11:01.542Z,94.93
2018-09-08T01:12:01.472Z,94.93
2018-09-08T01:13:01.448Z,94.93
2018-09-08T01:14:01.387Z,95.03
2018-09-08T01:15:01.700Z,95.12
2018-09-08T01:16:01.355Z,95.70
2018-09-08T01:17:01.337Z,95.70
2018-09-08T01:18:01.326Z,95.98
2018-09-08T01:19:01.301Z,95.70
2018-09-08T01:20:01.333Z,95.51
2018-09-08T01:21:01.312Z,95.98
2018-09-08T01:22:01.808Z,95.89
2018-09-08T01:23:01.361Z,95.98
2018-09-08T01:24:01.209Z,96.08
2018-09-08T01:25:01.260Z,95.61
2018-09-08T01:26:01.264Z,95.70
2018-09-08T01:30:01.774Z,95.70
2018-09-08T01:31:01.183Z,96.17
2018-09-08T01:32:01.187Z,95.79
2018-09-08T01:33:01.090Z,97.08
2018-09-08T01:34:01.264Z,97.08
2018-09-08T01:35:01.014Z,96.98
2018-09-08T01:36:01.354Z,97.94
2018-09-08T01:38:00.959Z,97.27
2018-09-08T01:39:00.943Z,97.27
2018-09-08T01:40:00.919Z,96.98
2018-09-08T01:41:00.951Z,97.56
2018-09-08T01:42:01.207Z,97.56
2018-09-08T01:43:00.912Z,97.56
2018-09-08T01:45:00.827Z,97.08
2018-09-08T01:46:00.830Z,98.03
2018-09-08T01:47:00.795Z,97.46
2018-09-08T01:48:01.120Z,96.98
2018-09-08T01:49:00.771Z,97.66
2018-09-08T01:50:00.802Z,98.03
2018-09-08T01:51:01.016Z,97.27
2018-09-08T01:53:00.870Z,97.08
2018-09-08T01:54:01.076Z,97.75
2018-09-08T01:55:00.689Z,98.32
2018-09-08T01:56:00.735Z,98.13
2018-09-08T01:57:01.304Z,98.13
2018-09-08T01:58:00.657Z,97.37
2018-09-08T01:59:00.613Z,97.94
2018-09-08T02:00:00.930Z,97.56
2018-09-08T02:01:00.541Z,97.46
2018-09-08T02:02:00.515Z,97.66
2018-09-08T02:03:00.499Z,97.17
2018-09-08T02:04:00.482Z,97.46
2018-09-08T02:05:00.463Z,97.17
2018-09-08T02:06:00.864Z,97.17
2018-09-08T02:07:00.765Z,96.98
2018-09-08T02:08:00.553Z,97.37
2018-09-08T02:09:00.538Z,97.37
2018-09-08T02:10:00.410Z,98.03
2018-09-08T02:11:00.448Z,97.46
2018-09-08T02:12:00.399Z,97.08
2018-09-08T02:13:00.682Z,96.98
2018-09-08T02:15:00.395Z,96.84
2018-09-08T02:16:00.261Z,97.66
2018-09-08T02:17:00.261Z,96.98
2018-09-08T02:18:00.325Z,97.99
2018-09-08T02:19:00.265Z,98.13
2018-09-08T02:20:00.516Z,97.17
2018-09-08T02:22:00.159Z,97.37
2018-09-08T02:23:00.142Z,97.17
2018-09-08T02:24:00.175Z,97.46
2018-09-08T02:25:00.162Z,97.08
2018-09-08T02:26:00.085Z,97.08
2018-09-08T02:27:00.375Z,97.32
2018-09-08T02:28:00.443Z,97.13
2018-09-08T02:29:00.027Z,98.08
2018-09-08T02:30:00.197Z,96.94
2018-09-08T02:31:00.037Z,97.03
2018-09-08T02:31:59.979Z,97.41
2018-09-08T02:33:00.009Z,97.51
2018-09-08T02:35:00.227Z,96.94
2018-09-08T02:36:59.884Z,97.32
2018-09-08T02:37:59.872Z,98.18
2018-09-08T02:38:59.928Z,96.84
2018-09-08T02:39:59.857Z,97.99
2018-09-08T02:40:59.812Z,98.08
2018-09-08T02:42:00.095Z,98.22
2018-09-08T02:42:59.806Z,98.03
2018-09-08T02:43:59.873Z,97.85
2018-09-08T02:45:00.031Z,98.22
2018-09-08T02:45:59.797Z,98.42
2018-09-08T02:46:59.834Z,98.51
2018-09-08T02:47:59.686Z,98.99
2018-09-08T02:48:59.958Z,99.37
2018-09-08T02:49:59.657Z,99.56
2018-09-08T02:50:59.712Z,99.37
2018-09-08T02:52:59.685Z,99.99
2018-09-08T02:53:59.677Z,99.61
2018-09-08T02:54:59.553Z,99.99
2018-09-08T02:55:59.831Z,99.99
2018-09-08T02:57:59.548Z,99.99
2018-09-08T02:58:59.527Z,99.99
2018-09-08T02:59:59.496Z,99.99
2018-09-08T03:01:01.264Z,99.99
2018-09-08T03:01:59.849Z,99.99
2018-09-08T03:02:59.426Z,99.99
2018-09-08T03:03:59.454Z,99.99
2018-09-08T03:04:59.369Z,99.99
2018-09-08T03:05:59.421Z,99.99
2018-09-08T03:06:59.344Z,99.99
2018-09-08T03:07:59.755Z,99.99
2018-09-08T03:10:00.042Z,99.99
2018-09-08T03:10:59.357Z,99.99
2018-09-08T03:11:59.414Z,99.99
2018-09-08T03:12:59.323Z,99.99
2018-09-08T03:13:59.501Z,99.99
2018-09-08T03:14:59.188Z,99.99
2018-09-08T03:15:59.165Z,99.99
2018-09-08T03:16:59.163Z,99.99
2018-09-08T03:17:59.181Z,99.99
2018-09-08T03:18:59.117Z,99.99
2018-09-08T03:19:59.399Z,99.99
2018-09-08T03:20:59.083Z,99.99
2018-09-08T03:21:59.067Z,99.99
2018-09-08T03:22:59.046Z,99.99
2018-09-08T03:23:59.078Z,99.99
2018-09-08T03:24:59.023Z,99.99
2018-09-08T03:25:59.300Z,99.99
2018-09-08T03:26:58.969Z,99.99
2018-09-08T03:27:58.955Z,99.99
2018-09-08T03:28:58.939Z,99.99
2018-09-08T03:29:58.918Z,99.99
2018-09-08T03:30:58.899Z,99.99
2018-09-08T03:31:59.194Z,99.99
2018-09-08T03:32:58.912Z,99.99
2018-09-08T03:33:58.846Z,99.99
2018-09-08T03:34:58.826Z,99.99
2018-09-08T03:35:58.807Z,99.99
2018-09-08T03:36:58.790Z,99.99
2018-09-08T03:37:58.775Z,99.99
2018-09-08T03:38:59.057Z,99.99
2018-09-08T03:39:58.741Z,99.99
2018-09-08T03:40:58.720Z,99.99
2018-09-08T03:41:58.802Z,99.99
2018-09-08T03:42:58.734Z,99.99
2018-09-08T03:43:58.666Z,99.99
2018-09-08T03:44:58.650Z,99.99
2018-09-08T03:45:58.932Z,99.99
2018-09-08T03:46:58.613Z,99.99
2018-09-08T03:47:58.603Z,99.99
2018-09-08T03:48:58.927Z,99.99
2018-09-08T03:49:58.568Z,99.99
2018-09-08T03:50:58.539Z,99.99
2018-09-08T03:51:58.524Z,99.99
2018-09-08T03:52:58.804Z,99.99
2018-09-08T03:53:58.491Z,99.99
2018-09-08T03:54:58.471Z,99.99
2018-09-08T03:55:58.450Z,99.99
2018-09-08T03:56:58.435Z,99.99
2018-09-08T03:57:58.425Z,99.99
2018-09-08T03:58:58.422Z,99.99
2018-09-08T03:59:58.679Z,99.99
2018-09-08T04:00:58.363Z,99.99
2018-09-08T04:01:58.345Z,99.99
2018-09-08T04:02:58.335Z,99.99
2018-09-08T04:03:58.358Z,99.99
2018-09-08T04:04:58.338Z,99.99
2018-09-08T04:05:58.287Z,99.99
2018-09-08T04:07:58.542Z,99.99
2018-09-08T04:08:58.287Z,99.95
2018-09-08T04:09:58.217Z,99.99
2018-09-08T04:10:58.265Z,99.85
2018-09-08T04:11:58.213Z,99.99
2018-09-08T04:12:58.146Z,99.95
2018-09-08T04:13:58.232Z,98.80
2018-09-08T04:14:58.410Z,99.46
2018-09-08T04:15:58.145Z,99.46
2018-09-08T04:16:58.072Z,99.75
2018-09-08T04:17:58.086Z,99.75
2018-09-08T04:18:58.040Z,99.75
2018-09-08T04:20:58.101Z,99.27
2018-09-08T04:21:58.285Z,99.56
2018-09-08T04:22:57.963Z,99.27
2018-09-08T04:23:58.008Z,99.37
2018-09-08T04:24:57.927Z,99.37
2018-09-08T04:25:57.909Z,98.80
2018-09-08T04:26:57.945Z,98.90
2018-09-08T04:27:58.179Z,98.80
2018-09-08T04:28:57.865Z,98.70
2018-09-08T04:29:57.840Z,98.61
2018-09-08T04:30:57.823Z,98.99
2018-09-08T04:31:57.799Z,98.42
2018-09-08T04:32:57.787Z,98.61
2018-09-08T04:33:58.115Z,98.90
2018-09-08T04:34:57.754Z,98.61
2018-09-08T04:35:57.728Z,98.61
2018-09-08T04:36:57.714Z,98.22
2018-09-08T04:37:57.752Z,97.46
2018-09-08T04:38:57.682Z,97.75
2018-09-08T04:39:57.957Z,98.03
2018-09-08T04:40:57.665Z,97.89
2018-09-08T04:41:57.629Z,97.61
2018-09-08T04:42:57.603Z,97.89
2018-09-08T04:43:57.653Z,97.80
2018-09-08T04:44:57.565Z,97.70
2018-09-08T04:45:57.850Z,97.89
2018-09-08T04:46:57.531Z,96.75
2018-09-08T04:47:57.520Z,98.27
2018-09-08T04:49:57.484Z,97.41
2018-09-08T04:50:57.462Z,97.22
2018-09-08T04:51:57.799Z,96.94
2018-09-08T04:52:57.478Z,97.08
2018-09-08T04:53:57.410Z,97.46
2018-09-08T04:54:57.444Z,97.41
2018-09-08T04:55:57.445Z,96.84
2018-09-08T04:56:57.398Z,97.13
2018-09-08T04:57:57.689Z,96.65
2018-09-08T04:58:57.317Z,97.03
2018-09-08T04:59:57.312Z,96.94
2018-09-08T05:00:57.283Z,96.94
2018-09-08T05:01:57.267Z,97.51
2018-09-08T05:02:57.297Z,97.08
2018-09-08T05:03:57.224Z,97.61
2018-09-08T05:04:57.507Z,97.22
2018-09-08T05:06:57.172Z,97.85
2018-09-08T05:07:57.201Z,97.56
2018-09-08T05:08:57.241Z,98.13
2018-09-08T05:09:57.135Z,98.13
2018-09-08T05:10:57.099Z,98.03
2018-09-08T05:11:57.377Z,98.13
2018-09-08T05:12:57.064Z,97.27
2018-09-08T05:13:57.090Z,98.51
2018-09-08T05:15:57.002Z,98.03
2018-09-08T05:16:57.147Z,98.13
2018-09-08T05:17:56.972Z,98.61
2018-09-08T05:18:57.253Z,99.18
2018-09-08T05:19:56.936Z,98.99
2018-09-08T05:20:57.096Z,98.66
2018-09-08T05:21:56.975Z,98.85
2018-09-08T05:22:56.938Z,99.42
2018-09-08T05:23:56.907Z,99.71
2018-09-08T05:24:56.863Z,98.85
2018-09-08T05:25:57.123Z,99.52
2018-09-08T05:26:56.806Z,99.23
2018-09-08T05:27:56.792Z,99.80
2018-09-08T05:28:56.771Z,99.52
2018-09-08T05:29:56.803Z,99.42
2018-09-08T05:30:56.737Z,99.61
2018-09-08T05:32:00.239Z,99.99
2018-09-08T05:32:56.995Z,99.99
2018-09-08T05:33:56.833Z,99.99
2018-09-08T05:34:56.714Z,99.99
2018-09-08T05:35:56.972Z,99.99
2018-09-08T05:36:56.630Z,99.99
2018-09-08T05:37:56.742Z,99.99
2018-09-08T05:38:56.820Z,99.99
2018-09-08T05:39:56.927Z,99.99
2018-09-08T05:40:56.557Z,99.99
2018-09-08T05:41:56.584Z,99.99
2018-09-08T05:42:56.617Z,99.99
2018-09-08T05:43:56.499Z,99.99
2018-09-08T05:44:56.483Z,99.99
2018-09-08T05:45:56.466Z,99.99
2018-09-08T05:46:56.796Z,99.99
2018-09-08T05:47:56.563Z,99.99
2018-09-08T05:49:56.404Z,99.99
2018-09-08T05:51:56.460Z,99.99
2018-09-08T05:52:56.687Z,99.99
2018-09-08T05:53:57.897Z,99.99
2018-09-08T05:54:56.307Z,99.99
2018-09-08T05:55:56.284Z,99.99
2018-09-08T05:56:56.270Z,99.99
2018-09-08T05:57:56.853Z,99.99
2018-09-08T05:58:56.582Z,99.99
2018-09-08T05:59:56.365Z,99.99
2018-09-08T06:00:56.266Z,99.99
2018-09-08T06:01:56.226Z,99.99
2018-09-08T06:02:56.161Z,99.99
2018-09-08T06:03:56.143Z,99.99
2018-09-08T06:04:56.425Z,99.99
2018-09-08T06:05:56.107Z,99.99
2018-09-08T06:06:56.093Z,99.99
2018-09-08T06:07:56.127Z,99.99
2018-09-08T06:08:56.054Z,99.99
2018-09-08T06:09:56.040Z,99.99
2018-09-08T06:10:56.329Z,99.99
2018-09-08T06:11:56.004Z,99.99
2018-09-08T06:12:56.152Z,99.99
2018-09-08T06:13:56.019Z,99.99
2018-09-08T06:14:55.954Z,99.99
2018-09-08T06:15:55.941Z,99.99
2018-09-08T06:16:56.467Z,99.99
2018-09-08T06:17:55.904Z,99.99
2018-09-08T06:18:56.007Z,99.99
2018-09-08T06:19:55.872Z,99.99
2018-09-08T06:20:55.849Z,99.99
2018-09-08T06:21:55.834Z,99.99
2018-09-08T06:22:56.216Z,99.99
2018-09-08T06:23:56.603Z,99.99
2018-09-08T06:24:56.006Z,99.99
2018-09-08T06:25:56.064Z,99.99
2018-09-08T06:26:55.751Z,99.99
2018-09-08T06:27:55.743Z,99.99
2018-09-08T06:28:56.083Z,99.99
2018-09-08T06:29:55.700Z,99.99
2018-09-08T06:30:55.883Z,99.99
2018-09-08T06:31:56.072Z,99.99
2018-09-08T06:32:55.697Z,99.99
2018-09-08T06:33:55.702Z,99.99
2018-09-08T06:34:55.675Z,99.99
2018-09-08T06:35:55.892Z,99.99
2018-09-08T06:36:55.575Z,99.99
2018-09-08T06:37:55.629Z,99.99
2018-09-08T06:38:55.601Z,99.99
2018-09-08T06:39:55.582Z,99.99
2018-09-08T06:40:55.512Z,99.99
2018-09-08T06:41:55.548Z,99.99
2018-09-08T06:42:55.935Z,99.99
2018-09-08T06:43:55.465Z,99.99
2018-09-08T06:44:55.522Z,99.99
2018-09-08T06:46:55.408Z,99.99
2018-09-08T06:48:55.750Z,99.99
2018-09-08T06:49:55.409Z,99.99
2018-09-08T06:50:55.337Z,99.99
2018-09-08T06:51:55.333Z,99.99
2018-09-08T06:52:55.313Z,99.99
2018-09-08T06:53:55.303Z,99.99
2018-09-08T06:54:55.287Z,99.99
2018-09-08T06:55:55.620Z,99.99
2018-09-08T06:56:55.257Z,99.99
2018-09-08T06:58:55.225Z,99.99
2018-09-08T06:59:55.248Z,99.99
2018-09-08T07:00:55.173Z,99.99
2018-09-08T07:01:55.164Z,99.99
2018-09-08T07:02:55.143Z,99.99
2018-09-08T07:03:55.194Z,99.99
2018-09-08T07:04:55.114Z,99.99
2018-09-08T07:05:55.142Z,99.99
2018-09-08T07:06:55.073Z,99.99
2018-09-08T07:07:55.060Z,99.99
2018-09-08T07:08:55.395Z,99.99
2018-09-08T07:09:55.024Z,99.99
2018-09-08T07:10:55.010Z,99.99
2018-09-08T07:11:55.073Z,99.99
2018-09-08T07:12:54.977Z,99.99
2018-09-08T07:13:54.959Z,99.99
2018-09-08T07:14:54.945Z,99.99
2018-09-08T07:15:55.235Z,99.99
2018-09-08T07:16:55.085Z,99.99
2018-09-08T07:17:55.131Z,99.99
2018-09-08T07:18:54.971Z,99.99
2018-09-08T07:19:54.858Z,99.99
2018-09-08T07:20:54.848Z,99.99
2018-09-08T07:21:55.127Z,99.99
2018-09-08T07:23:54.852Z,99.99
2018-09-08T07:24:54.819Z,99.99
2018-09-08T07:25:54.761Z,99.99
2018-09-08T07:26:54.748Z,99.99
2018-09-08T07:27:55.143Z,99.99
2018-09-08T07:28:54.723Z,99.99
2018-09-08T07:29:54.697Z,99.99
2018-09-08T07:30:54.768Z,99.99
2018-09-08T07:31:54.664Z,99.99
2018-09-08T07:32:54.654Z,99.99
2018-09-08T07:33:54.934Z,99.99
2018-09-08T07:34:54.673Z,99.99
2018-09-08T07:35:54.606Z,99.99
2018-09-08T07:36:54.586Z,99.99
2018-09-08T07:37:54.574Z,99.99
2018-09-08T07:38:54.572Z,99.99
2018-09-08T07:40:54.824Z,99.99
2018-09-08T07:41:54.560Z,99.99
2018-09-08T07:42:54.494Z,99.99
2018-09-08T07:43:54.480Z,99.99
2018-09-08T07:44:54.463Z,99.99
2018-09-08T07:45:54.501Z,99.99
2018-09-08T07:47:55.112Z,99.99
2018-09-08T07:48:54.409Z,99.99
2018-09-08T07:50:54.376Z,99.99
2018-09-08T07:51:55.563Z,99.99
2018-09-08T07:52:54.355Z,99.99
2018-09-08T07:53:55.349Z,99.99
2018-09-08T07:54:54.359Z,99.99
2018-09-08T07:55:54.298Z,99.99
2018-09-08T07:57:54.265Z,99.99
2018-09-08T07:58:54.344Z,99.99
2018-09-08T07:59:54.595Z,99.99
2018-09-08T08:00:54.221Z,99.53
2018-09-08T08:01:54.210Z,99.73
2018-09-08T08:02:54.187Z,99.82
2018-09-08T08:03:54.179Z,99.63
2018-09-08T08:04:54.167Z,99.63
2018-09-08T08:05:54.143Z,99.73
2018-09-08T08:06:54.133Z,99.63
2018-09-08T08:07:54.294Z,99.63
2018-09-08T08:08:54.156Z,99.24
2018-09-08T08:09:54.155Z,99.53
2018-09-08T08:10:54.377Z,99.01
2018-09-08T08:11:54.056Z,99.49
2018-09-08T08:12:54.348Z,99.29
2018-09-08T08:13:54.049Z,99.01
2018-09-08T08:14:54.028Z,98.43
2018-09-08T08:15:54.003Z,98.82
2018-09-08T08:16:54.293Z,98.82
2018-09-08T08:17:53.983Z,99.05
2018-09-08T08:18:54.059Z,98.10
2018-09-08T08:19:54.255Z,97.56
2018-09-08T08:20:53.933Z,98.05
2018-09-08T08:21:53.920Z,98.82
2018-09-08T08:22:54.292Z,98.91
2018-09-08T08:23:53.886Z,98.82
2018-09-08T08:24:53.881Z,99.01
2018-09-08T08:25:53.958Z,99.68
2018-09-08T08:26:54.154Z,99.05
2018-09-08T08:28:53.822Z,98.77
2018-09-08T08:29:53.806Z,97.33
2018-09-08T08:30:53.795Z,97.42
2018-09-08T08:31:53.786Z,97.42
2018-09-08T08:32:53.798Z,96.85
2018-09-08T08:33:54.102Z,96.66
2018-09-08T08:34:53.792Z,97.52
2018-09-08T08:35:56.758Z,97.57
2018-09-08T08:36:53.779Z,96.13
2018-09-08T08:37:53.835Z,94.69
2018-09-08T08:39:54.020Z,94.59
2018-09-08T08:40:53.715Z,94.31
2018-09-08T08:41:53.697Z,94.21
2018-09-08T08:42:53.700Z,94.98
2018-09-08T08:43:53.635Z,95.36
2018-09-08T08:44:53.610Z,95.55
2018-09-08T08:45:53.665Z,94.78
2018-09-08T08:46:55.412Z,94.98
2018-09-08T08:47:54.364Z,94.98
2018-09-08T08:48:53.577Z,95.21
2018-09-08T08:49:53.628Z,94.69
2018-09-08T08:50:53.530Z,95.65
2018-09-08T08:51:53.518Z,92.10
2018-09-08T08:52:53.699Z,91.61
2018-09-08T08:53:53.837Z,92.19
2018-09-08T08:54:53.475Z,93.15
2018-09-08T08:55:53.539Z,92.57
2018-09-08T08:56:53.536Z,92.67
2018-09-08T08:57:53.490Z,91.66
2018-09-08T08:59:58.829Z,91.13
2018-09-08T09:00:53.599Z,91.52
2018-09-08T09:01:53.388Z,90.41
2018-09-08T09:02:53.759Z,91.08
2018-09-08T09:03:53.434Z,92.05
2018-09-08T09:04:53.393Z,92.86
2018-09-08T09:05:53.335Z,92.77
2018-09-08T09:06:53.975Z,89.93
2018-09-08T09:07:53.303Z,89.45
2018-09-08T09:08:53.311Z,87.92
2018-09-08T09:09:53.344Z,87.57
2018-09-08T09:10:53.269Z,87.19
2018-09-08T09:11:54.168Z,86.13
2018-09-08T09:12:53.328Z,85.89
2018-09-08T09:13:53.236Z,87.43
2018-09-08T09:14:53.289Z,88.59
2018-09-08T09:15:53.359Z,91.13
2018-09-08T09:16:53.204Z,91.71
2018-09-08T09:17:53.552Z,92.19
2018-09-08T09:18:53.546Z,93.54
2018-09-08T09:19:53.159Z,94.78
2018-09-08T09:20:53.198Z,94.21
2018-09-08T09:21:53.301Z,94.40
2018-09-08T09:22:53.348Z,94.74
2018-09-08T09:23:53.419Z,93.05
2018-09-08T09:24:53.817Z,91.52
2018-09-08T09:25:53.090Z,92.24
2018-09-08T09:26:53.072Z,93.68
2018-09-08T09:27:53.063Z,94.26
2018-09-08T09:28:53.047Z,93.05
2018-09-08T09:29:53.334Z,92.48
2018-09-08T09:30:53.029Z,90.94
2018-09-08T09:31:53.086Z,91.33
2018-09-08T09:33:52.980Z,90.99
2018-09-08T09:34:53.395Z,86.76
2018-09-08T09:35:53.455Z,87.57
2018-09-08T09:36:52.952Z,85.17
2018-09-08T09:37:53.183Z,82.71
2018-09-08T09:38:53.017Z,84.21
2018-09-08T09:39:52.909Z,85.03
2018-09-08T09:40:53.192Z,86.28
2018-09-08T09:41:53.095Z,87.29
2018-09-08T09:42:53.241Z,87.10
2018-09-08T09:43:52.853Z,85.85
2018-09-08T09:44:52.843Z,85.13
2018-09-08T09:45:52.829Z,84.26
2018-09-08T09:46:52.873Z,82.86
2018-09-08T09:47:52.814Z,81.23
2018-09-08T09:48:52.794Z,79.44
2018-09-08T09:49:54.041Z,79.28
2018-09-08T09:50:53.847Z,76.98
2018-09-08T09:51:53.510Z,75.82
2018-09-08T09:52:53.763Z,74.76
2018-09-08T09:53:53.683Z,76.36
2018-09-08T09:54:52.722Z,77.71
2018-09-08T09:55:52.707Z,77.71
2018-09-08T09:56:52.996Z,79.69
2018-09-08T09:58:52.672Z,80.55
2018-09-08T09:59:52.660Z,80.69
2018-09-08T10:00:52.707Z,79.19
2018-09-08T10:02:53.515Z,77.26
2018-09-08T10:03:52.777Z,76.21
2018-09-08T10:04:52.603Z,74.96
2018-09-08T10:05:52.588Z,73.61
2018-09-08T10:06:52.880Z,74.19
2018-09-08T10:07:52.567Z,73.61
2018-09-08T10:08:52.608Z,73.32
2018-09-08T10:09:52.594Z,74.82
2018-09-08T10:11:53.321Z,73.07
2018-09-08T10:12:52.559Z,71.81
2018-09-08T10:13:52.500Z,72.30
2018-09-08T10:14:52.631Z,71.08
2018-09-08T10:15:53.078Z,71.70
2018-09-08T10:16:52.997Z,70.60
2018-09-08T10:17:52.464Z,70.02
2018-09-08T10:18:54.224Z,69.15
2018-09-08T10:19:52.465Z,69.85
2018-09-08T10:20:52.513Z,70.92
2018-09-08T10:21:52.681Z,71.69
2018-09-08T10:22:52.943Z,71.11
2018-09-08T10:24:04.340Z,70.09
2018-09-08T10:24:52.449Z,69.93
2018-09-08T10:25:53.584Z,68.80
2018-09-08T10:26:52.832Z,68.10
2018-09-08T10:31:52.897Z,70.28
2018-09-08T10:32:52.289Z,70.28
2018-09-08T10:33:52.278Z,71.91
2018-09-08T10:34:52.331Z,72.30
2018-09-08T10:35:52.257Z,69.89
2018-09-08T10:36:52.254Z,69.51
2018-09-08T10:37:52.374Z,69.99
2018-09-08T10:38:52.528Z,69.41
2018-09-08T10:39:52.212Z,69.47
2018-09-08T10:40:52.200Z,70.09
2018-09-08T10:41:52.188Z,69.70
2018-09-08T10:43:52.324Z,68.80
2018-09-08T10:44:52.463Z,69.51
2018-09-08T10:45:52.150Z,69.70
2018-09-08T10:46:52.139Z,69.02
2018-09-08T10:47:52.123Z,69.41
2018-09-08T10:48:52.115Z,68.54
2018-09-08T10:49:52.255Z,67.49
2018-09-08T10:50:52.119Z,68.54
2018-09-08T10:51:52.380Z,68.22
2018-09-08T10:52:52.084Z,68.41
2018-09-08T10:53:52.116Z,68.32
2018-09-08T10:54:52.278Z,68.41
2018-09-08T10:55:52.360Z,68.90
2018-09-08T10:56:52.031Z,68.99
2018-09-08T10:57:52.563Z,68.60
2018-09-08T10:58:52.104Z,68.99
2018-09-08T11:00:52.016Z,69.57
2018-09-08T11:01:52.108Z,69.63
2018-09-08T11:02:52.299Z,69.63
2018-09-08T11:03:52.245Z,70.34
2018-09-08T11:04:51.974Z,68.13
2018-09-08T11:05:51.934Z,68.70
2018-09-08T11:06:51.969Z,68.32
2018-09-08T11:07:52.058Z,69.06
2018-09-08T11:08:51.890Z,67.84
2018-09-08T11:09:51.880Z,65.53
2018-09-08T11:10:52.167Z,65.24
2018-09-08T11:11:51.859Z,65.81
2018-09-08T11:12:51.895Z,66.49
2018-09-08T11:13:52.131Z,65.63
2018-09-08T11:14:51.821Z,65.53
2018-09-08T11:15:51.891Z,63.60
2018-09-08T11:16:51.799Z,62.12
2018-09-08T11:17:52.100Z,61.48
2018-09-08T11:18:51.854Z,60.32
2018-09-08T11:19:51.820Z,60.74
2018-09-08T11:20:51.761Z,59.48
2018-09-08T11:21:51.762Z,59.27
2018-09-08T11:22:51.737Z,60.23
2018-09-08T11:23:51.758Z,60.97
2018-09-08T11:24:52.018Z,62.70
2018-09-08T11:25:52.017Z,62.54
2018-09-08T11:26:51.693Z,61.96
2018-09-08T11:27:51.678Z,61.68
2018-09-08T11:28:51.679Z,61.87
2018-09-08T11:29:51.663Z,60.93
2018-09-08T11:30:51.657Z,60.61
2018-09-08T11:31:52.120Z,59.64
2018-09-08T11:32:51.643Z,60.61
2018-09-08T11:33:51.632Z,58.58
2018-09-08T11:34:51.620Z,58.29
2018-09-08T11:35:51.604Z,58.58
2018-09-08T11:36:51.797Z,58.29
2018-09-08T11:37:51.648Z,57.62
2018-09-08T11:38:51.627Z,58.36
2018-09-08T11:39:51.627Z,59.97
2018-09-08T11:40:51.555Z,59.68
2018-09-08T11:41:51.543Z,59.78
2018-09-08T11:42:51.528Z,60.52
2018-09-08T11:43:51.522Z,60.13
2018-09-08T11:44:52.085Z,60.71
2018-09-08T11:45:51.507Z,60.10
2018-09-08T11:46:51.487Z,61.45
2018-09-08T11:47:51.478Z,61.61
2018-09-08T11:48:51.467Z,61.55
2018-09-08T11:49:51.461Z,61.83
2018-09-08T11:50:51.750Z,61.90
2018-09-08T11:52:51.495Z,62.19
2018-09-08T11:53:51.422Z,63.06
2018-09-08T11:54:51.409Z,63.15
2018-09-08T11:55:51.454Z,62.87
2018-09-08T11:56:51.391Z,63.15
2018-09-08T11:57:51.755Z,62.57
2018-09-08T11:58:51.373Z,63.15
2018-09-08T11:59:51.504Z,63.34
2018-09-08T12:00:51.352Z,63.18
2018-09-08T12:01:51.578Z,63.18
2018-09-08T12:02:51.535Z,63.38
2018-09-08T12:03:51.866Z,61.87
2018-09-08T12:04:51.581Z,62.06
2018-09-08T12:05:51.528Z,61.87
2018-09-08T12:06:51.330Z,61.32
2018-09-08T12:07:51.334Z,61.68
2018-09-08T12:08:51.263Z,61.10
2018-09-08T12:09:51.856Z,60.32
2018-09-08T12:10:51.249Z,60.32
2018-09-08T12:11:51.374Z,59.75
2018-09-08T12:12:51.389Z,59.07
2018-09-08T12:13:51.477Z,58.78
2018-09-08T12:14:51.429Z,59.27
2018-09-08T12:15:51.842Z,59.84
2018-09-08T12:16:51.178Z,59.62
2018-09-08T12:18:51.150Z,60.87
2018-09-08T12:19:52.522Z,61.29
2018-09-08T12:20:51.181Z,60.58
2018-09-08T12:21:51.656Z,58.55
2018-09-08T12:22:52.530Z,58.84
2018-09-08T12:23:51.098Z,57.90
2018-09-08T12:24:51.142Z,56.91
2018-09-08T12:25:51.413Z,58.17
2018-09-08T12:26:51.135Z,58.84
2018-09-08T12:27:51.418Z,58.00
2018-09-08T12:28:51.038Z,57.23
2018-09-08T12:29:51.334Z,57.39
2018-09-08T12:30:51.448Z,58.23
2018-09-08T12:31:51.391Z,58.81
2018-09-08T12:32:58.405Z,59.75
2018-09-08T12:34:08.493Z,59.94
2018-09-08T12:35:10.948Z,59.94
2018-09-08T12:35:57.910Z,60.42
2018-09-08T12:37:04.200Z,60.68
2018-09-08T12:37:50.947Z,61.35
2018-09-08T12:38:51.565Z,62.15
2018-09-08T12:39:51.133Z,61.45
2018-09-08T12:40:57.535Z,62.22
2018-09-08T12:41:52.623Z,62.41
2018-09-08T12:42:50.900Z,62.12
2018-09-08T12:43:51.462Z,61.35
2018-09-08T12:44:50.868Z,61.45
2018-09-08T12:45:50.909Z,61.16
2018-09-08T12:46:50.860Z,60.39
2018-09-08T12:47:51.187Z,60.10
2018-09-08T12:48:50.830Z,60.20
2018-09-08T12:49:50.823Z,59.91
2018-09-08T12:50:50.908Z,60.49
2018-09-08T12:51:50.805Z,59.78
2018-09-08T12:52:50.854Z,60.17
2018-09-08T12:53:50.776Z,59.72
2018-09-08T12:54:51.117Z,59.91
2018-09-08T12:55:50.758Z,60.77
2018-09-08T12:56:51.352Z,59.75
2018-09-08T12:57:52.147Z,58.33
2018-09-08T12:58:51.332Z,56.88
2018-09-08T12:59:50.714Z,57.24
2018-09-08T13:00:50.706Z,57.34
2018-09-08T13:01:51.039Z,58.04
2018-09-08T13:02:50.747Z,56.49
2018-09-08T13:03:50.731Z,56.79
2018-09-08T13:04:50.896Z,56.11
2018-09-08T13:06:50.635Z,56.49
2018-09-08T13:07:50.986Z,56.47
2018-09-08T13:08:50.990Z,56.37
2018-09-08T13:09:50.608Z,57.05
2018-09-08T13:10:50.598Z,57.69
2018-09-08T13:11:50.641Z,58.75
2018-09-08T13:12:50.645Z,58.37
2018-09-08T13:13:50.870Z,58.08
2018-09-08T13:14:50.546Z,57.79
2018-09-08T13:15:50.835Z,58.08
2018-09-08T13:16:50.593Z,57.07
2018-09-08T13:17:50.515Z,55.46
2018-09-08T13:18:50.524Z,54.82
2018-09-08T13:19:50.506Z,53.20
2018-09-08T13:20:50.643Z,53.59
2018-09-08T13:21:50.475Z,53.27
2018-09-08T13:22:50.879Z,52.89
2018-09-08T13:23:50.446Z,52.37
2018-09-08T13:24:50.447Z,52.76
2018-09-08T13:25:50.533Z,53.51
2018-09-08T13:26:50.420Z,54.54
2018-09-08T13:27:50.421Z,55.51
2018-09-08T13:28:50.446Z,56.47
2018-09-08T13:29:50.689Z,57.14
2018-09-08T13:30:50.887Z,58.01
2018-09-08T13:31:50.493Z,57.34
2018-09-08T13:32:50.511Z,56.95
2018-09-08T13:33:50.453Z,58.23
2018-09-08T13:34:50.440Z,57.34
2018-09-08T13:35:50.624Z,57.56